Time;durP1;ratioP1;P1;durP2;ratioP2;P2;SDS_P1;SDS_P2;PMS_P1;PMS_P2;Temp;Humidity;BMP_temperature;BMP_pressure;BME280_temperature;BME280_humidity;BME280_pressure;Samples;Min_cycle;Max_cycle;Signal;HPM_P1;HPM_P2
2023/07/18 00:00:12;;;;;;;5.22;4.70;;;;;;;24.20;54.02;95483.88;4952568;29;20634;-87
2023/07/18 00:02:39;;;;;;;5.28;4.78;;;;;;;24.21;53.75;95474.94;4950985;29;20232;-87
2023/07/18 00:05:07;;;;;;;4.70;4.20;;;;;;;24.23;53.57;95465.72;4952468;29;20581;-87
2023/07/18 00:07:34;;;;;;;5.57;4.80;;;;;;;24.32;53.25;95472.03;4951585;29;20215;-88
2023/07/18 00:10:01;;;;;;;4.70;4.25;;;;;;;24.31;53.45;95473.09;4952134;29;20729;-88
2023/07/18 00:12:28;;;;;;;6.65;4.63;;;;;;;24.31;53.58;95470.47;4951576;28;20212;-87
2023/07/18 00:14:54;;;;;;;5.57;4.47;;;;;;;24.36;53.21;95459.94;4950943;29;20578;-87
2023/07/18 00:17:21;;;;;;;6.75;4.90;;;;;;;24.40;54.12;95487.31;4950804;29;20225;-87
2023/07/18 00:19:50;;;;;;;5.10;4.60;;;;;;;24.44;54.40;95501.50;4951772;29;20229;-87
2023/07/18 00:22:16;;;;;;;7.25;4.68;;;;;;;24.49;54.14;95510.44;4950614;29;20287;-87
2023/07/18 00:24:43;;;;;;;5.25;4.63;;;;;;;24.44;53.90;95490.97;4951725;29;20217;-87
2023/07/18 00:27:11;;;;;;;4.85;4.38;;;;;;;24.38;53.88;95483.34;4951605;29;20196;-87
2023/07/18 00:29:37;;;;;;;9.15;4.80;;;;;;;24.33;54.44;95505.19;4951140;29;20757;-88
2023/07/18 00:32:04;;;;;;;5.35;4.70;;;;;;;24.28;54.35;95518.34;4951918;29;20208;-87
2023/07/18 00:34:31;;;;;;;5.32;4.82;;;;;;;24.24;54.76;95533.13;4950062;29;20205;-87
2023/07/18 00:36:57;;;;;;;5.93;5.00;;;;;;;24.24;55.03;95538.38;4951280;29;20236;-87
2023/07/18 00:39:24;;;;;;;7.53;4.78;;;;;;;24.27;55.23;95542.28;4951747;29;20854;-88
2023/07/18 00:41:52;;;;;;;5.18;4.68;;;;;;;24.31;54.70;95515.19;4951618;29;20232;-88
2023/07/18 00:44:19;;;;;;;5.20;4.70;;;;;;;24.21;55.62;95549.41;4951191;29;20723;-88
2023/07/18 00:46:46;;;;;;;4.80;4.20;;;;;;;24.14;55.57;95559.38;4951585;29;20891;-87
2023/07/18 00:49:13;;;;;;;5.05;4.55;;;;;;;24.23;55.53;95555.19;4950822;29;20212;-88
2023/07/18 00:51:40;;;;;;;6.18;4.43;;;;;;;24.24;55.63;95562.06;4949493;29;20208;-87
2023/07/18 00:54:08;;;;;;;4.82;4.28;;;;;;;24.24;55.13;95553.38;4950935;29;20204;-87
2023/07/18 00:56:35;;;;;;;7.03;4.38;;;;;;;24.27;55.17;95543.09;4951027;29;20220;-87
2023/07/18 00:59:01;;;;;;;8.35;4.70;;;;;;;24.24;55.09;95533.13;4951026;29;20228;-87
2023/07/18 01:01:29;;;;;;;4.90;4.30;;;;;;;24.26;54.75;95525.72;4951295;29;20696;-88
2023/07/18 01:03:55;;;;;;;4.63;4.20;;;;;;;24.27;54.85;95519.41;4949957;29;20193;-88
2023/07/18 01:06:24;;;;;;;4.25;3.85;;;;;;;24.24;55.29;95535.75;4948953;29;20200;-88
2023/07/18 01:08:51;;;;;;;4.97;4.32;;;;;;;24.21;55.43;95535.44;4950810;29;20236;-88
2023/07/18 01:11:18;;;;;;;4.88;4.30;;;;;;;24.19;55.29;95532.28;4950627;29;20268;-87
2023/07/18 01:13:45;;;;;;;4.80;4.38;;;;;;;24.14;55.45;95522.53;4950332;29;20884;-87
2023/07/18 01:16:11;;;;;;;4.97;4.32;;;;;;;24.06;55.55;95521.22;4950573;29;20681;-88
2023/07/18 01:18:40;;;;;;;4.80;4.28;;;;;;;24.06;55.11;95509.91;4951074;29;20295;-87
2023/07/18 01:21:08;;;;;;;5.22;4.13;;;;;;;24.03;55.28;95513.06;4949913;29;20220;-87
2023/07/18 01:23:36;;;;;;;6.28;4.47;;;;;;;24.04;55.57;95517.28;4948534;28;20208;-87
2023/07/18 01:26:02;;;;;;;5.88;4.60;;;;;;;24.00;55.77;95516.22;4950592;28;20205;-88
2023/07/18 01:28:29;;;;;;;5.13;4.45;;;;;;;23.90;55.99;95530.16;4950128;29;20212;-87
2023/07/18 01:30:56;;;;;;;5.20;4.70;;;;;;;23.83;56.87;95566.44;4950492;29;20597;-89
2023/07/18 01:33:22;;;;;;;5.35;4.40;;;;;;;23.75;56.60;95559.84;4950145;29;20196;-87
2023/07/18 01:35:51;;;;;;;5.30;4.45;;;;;;;23.69;57.40;95579.28;4950549;29;20300;-88
2023/07/18 01:38:18;;;;;;;6.90;4.78;;;;;;;23.68;57.24;95582.16;4949354;29;20307;-88
2023/07/18 01:40:45;;;;;;;5.90;4.40;;;;;;;23.67;57.33;95602.41;4950439;29;20240;-87
2023/07/18 01:43:12;;;;;;;4.90;4.40;;;;;;;23.69;57.53;95612.66;4950040;29;20204;-87
2023/07/18 01:45:38;;;;;;;5.68;4.43;;;;;;;23.68;57.82;95617.13;4950525;29;20571;-88
2023/07/18 01:48:05;;;;;;;4.43;4.03;;;;;;;23.55;57.94;95627.34;4950910;29;20212;-88
2023/07/18 01:50:32;;;;;;;5.55;5.00;;;;;;;23.47;58.18;95623.34;4950408;29;20228;-88
2023/07/18 01:52:59;;;;;;;5.22;4.70;;;;;;;23.41;58.78;95638.28;4949954;29;20203;-87
2023/07/18 01:55:25;;;;;;;5.30;4.80;;;;;;;23.36;58.82;95640.91;4949284;29;20204;-87
2023/07/18 01:57:53;;;;;;;5.40;4.90;;;;;;;23.27;58.98;95644.28;4949959;29;20228;-87
2023/07/18 02:00:20;;;;;;;6.22;4.68;;;;;;;23.27;59.43;95654.78;4950300;29;20790;-87
2023/07/18 02:02:48;;;;;;;5.55;4.97;;;;;;;23.27;59.60;95665.28;4950048;29;20204;-87
2023/07/18 02:05:16;;;;;;;6.38;4.65;;;;;;;23.27;59.33;95662.66;4949847;29;20284;-87
2023/07/18 02:07:43;;;;;;;6.20;4.65;;;;;;;23.20;59.71;95665.50;4950219;29;20204;-88
2023/07/18 02:10:10;;;;;;;5.35;4.85;;;;;;;23.07;60.61;95687.75;4948815;29;20228;-87
2023/07/18 02:12:36;;;;;;;6.53;4.45;;;;;;;23.01;60.66;95701.09;4948720;29;20204;-87
2023/07/18 02:15:05;;;;;;;5.25;4.40;;;;;;;23.05;60.44;95708.22;4950529;29;20209;-87
2023/07/18 02:17:32;;;;;;;7.32;4.63;;;;;;;23.09;60.53;95717.16;4950000;29;20228;-87
2023/07/18 02:19:58;;;;;;;6.82;5.00;;;;;;;23.07;60.45;95703.53;4949870;29;20593;-87
2023/07/18 02:22:26;;;;;;;7.22;5.10;;;;;;;23.13;60.11;95693.81;4949240;28;20201;-87
2023/07/18 02:24:52;;;;;;;5.45;4.95;;;;;;;23.09;60.45;95688.28;4950656;29;20205;-87
2023/07/18 02:27:19;;;;;;;6.78;5.28;;;;;;;22.95;60.75;95687.13;4948282;29;20212;-88
2023/07/18 02:29:47;;;;;;;5.30;4.80;;;;;;;22.90;61.26;95713.34;4949739;29;20220;-87
2023/07/18 02:32:16;;;;;;;9.20;5.03;;;;;;;22.95;60.87;95697.63;4949856;29;20237;-87
2023/07/18 02:34:43;;;;;;;5.28;4.78;;;;;;;22.96;61.09;95714.97;4949838;29;20299;-87
2023/07/18 02:37:10;;;;;;;5.22;4.72;;;;;;;22.98;60.87;95706.84;4951573;28;20227;-88
2023/07/18 02:39:38;;;;;;;5.88;5.00;;;;;;;22.94;61.10;95708.38;4953409;29;20745;-88
2023/07/18 02:42:05;;;;;;;8.27;5.10;;;;;;;22.88;60.74;95701.53;4953470;29;20200;-87
2023/07/18 02:44:32;;;;;;;6.28;5.68;;;;;;;22.78;60.87;95701.44;4951735;29;20734;-87
2023/07/18 02:46:59;;;;;;;6.00;4.93;;;;;;;22.83;60.49;95693.59;4953800;29;20693;-87
2023/07/18 02:49:26;;;;;;;5.32;4.82;;;;;;;22.76;61.01;95693.78;4953358;29;20229;-87
2023/07/18 02:51:53;;;;;;;5.97;5.05;;;;;;;22.81;60.80;95698.31;4953367;29;20213;-88
2023/07/18 02:54:20;;;;;;;5.65;4.97;;;;;;;22.83;60.63;95693.59;4953061;29;20722;-87
2023/07/18 02:56:46;;;;;;;5.25;4.72;;;;;;;22.82;60.94;95710.41;4952998;29;20311;-87
2023/07/18 02:59:13;;;;;;;6.63;4.82;;;;;;;22.80;61.01;95705.41;4952076;29;20554;-87
2023/07/18 03:01:40;;;;;;;6.18;5.07;;;;;;;22.77;60.94;95705.06;4953556;29;20216;-87
2023/07/18 03:04:06;;;;;;;6.00;5.03;;;;;;;22.75;60.96;95697.44;4952703;29;20208;-87
2023/07/18 03:06:34;;;;;;;5.38;4.88;;;;;;;22.80;61.04;95713.28;4953508;29;20598;-88
2023/07/18 03:09:01;;;;;;;5.45;4.75;;;;;;;22.74;61.32;95724.72;4953093;29;20701;-87
2023/07/18 03:11:28;;;;;;;7.40;5.20;;;;;;;22.74;61.14;95727.34;4953176;29;20209;-87
2023/07/18 03:13:54;;;;;;;5.43;4.93;;;;;;;22.68;61.66;95731.00;4952503;29;20353;-87
2023/07/18 03:16:21;;;;;;;5.40;4.90;;;;;;;22.61;61.99;95743.53;4951756;29;20212;-88
2023/07/18 03:18:47;;;;;;;6.63;5.35;;;;;;;22.52;62.28;95758.91;4952897;29;20725;-87
2023/07/18 03:21:16;;;;;;;6.63;5.38;;;;;;;22.52;62.24;95758.91;4952056;29;20229;-87
2023/07/18 03:23:44;;;;;;;7.13;4.85;;;;;;;22.51;62.41;95756.56;4943915;29;20675;-88
2023/07/18 03:26:10;;;;;;;7.05;6.35;;;;;;;22.43;62.80;95770.09;4945171;29;20275;-87
2023/07/18 03:28:36;;;;;;;8.93;8.02;;;;;;;22.35;63.21;95779.19;4952802;29;20573;-87
2023/07/18 03:31:03;;;;;;;7.07;5.82;;;;;;;22.34;63.41;95786.25;4951598;29;20272;-87
2023/07/18 03:33:29;;;;;;;5.68;5.03;;;;;;;22.34;63.78;95796.75;4952196;29;20690;-88
2023/07/18 03:35:56;;;;;;;5.68;5.10;;;;;;;22.30;63.92;95806.19;4952918;29;20204;-87
2023/07/18 03:38:22;;;;;;;5.88;5.30;;;;;;;22.27;63.80;95805.88;4952722;29;20224;-87
2023/07/18 03:40:51;;;;;;;5.80;5.15;;;;;;;22.28;63.56;95792.50;4952579;29;20221;-88
2023/07/18 03:43:17;;;;;;;6.18;5.15;;;;;;;22.25;63.81;95803.50;4952279;29;20863;-87
2023/07/18 03:45:44;;;;;;;5.88;5.15;;;;;;;22.19;64.00;95819.41;4952717;29;20219;-87
2023/07/18 03:48:10;;;;;;;6.53;5.93;;;;;;;22.13;64.02;95815.16;4950722;28;20193;-88
2023/07/18 03:50:38;;;;;;;6.22;5.57;;;;;;;22.15;63.99;95811.22;4947102;29;20221;-88
2023/07/18 03:53:04;;;;;;;7.13;5.68;;;;;;;22.15;64.10;95815.66;4951512;29;20874;-88
2023/07/18 03:55:31;;;;;;;5.85;5.25;;;;;;;22.15;64.58;95834.03;4951855;29;20201;-88
2023/07/18 03:57:58;;;;;;;6.10;5.50;;;;;;;22.21;64.47;95820.75;4952053;29;20213;-87
2023/07/18 04:00:26;;;;;;;5.63;5.07;;;;;;;22.21;64.32;95822.56;4951933;29;20272;-87
2023/07/18 04:02:52;;;;;;;6.30;5.45;;;;;;;22.24;64.45;95825.50;4952115;29;20201;-87
2023/07/18 04:05:20;;;;;;;5.78;5.28;;;;;;;22.23;64.73;95823.91;4950484;29;20205;-87
2023/07/18 04:07:46;;;;;;;6.95;5.70;;;;;;;22.19;65.15;95841.19;4941480;29;20417;-87
2023/07/18 04:10:14;;;;;;;6.30;5.70;;;;;;;22.17;64.95;95826.72;4952055;29;20255;-87
2023/07/18 04:12:40;;;;;;;6.40;5.10;;;;;;;21.95;65.98;95851.03;4951702;28;20626;-88
2023/07/18 04:15:10;;;;;;;5.75;5.25;;;;;;;21.96;66.06;95852.63;4951943;29;20211;-87
2023/07/18 04:17:36;;;;;;;5.82;4.93;;;;;;;22.09;66.02;95862.03;4951472;29;20291;-88
2023/07/18 04:20:04;;;;;;;7.07;5.85;;;;;;;22.13;66.08;95868.38;4950801;29;20223;-88
2023/07/18 04:22:30;;;;;;;7.75;5.60;;;;;;;22.08;66.80;95878.00;4950557;29;20220;-88
2023/07/18 04:24:57;;;;;;;5.97;5.38;;;;;;;22.19;66.64;95890.22;4950890;29;20212;-88
2023/07/18 04:27:26;;;;;;;6.35;5.28;;;;;;;22.16;67.33;95898.56;4949984;29;20212;-88
2023/07/18 04:29:53;;;;;;;7.45;5.70;;;;;;;22.29;66.32;95867.56;4951599;29;20229;-89
2023/07/18 04:32:21;;;;;;;9.60;5.10;;;;;;;22.28;66.72;95876.47;4953474;29;20621;-87
2023/07/18 04:34:50;;;;;;;7.40;5.20;;;;;;;22.36;66.33;95849.00;4954409;29;20212;-84
2023/07/18 04:37:22;;;;;;;7.22;5.65;;;;;;;22.39;66.14;95857.19;4953339;29;20221;-87
2023/07/18 04:39:54;;;;;;;6.45;5.60;;;;;;;22.48;65.66;95838.41;4952318;29;20768;-86
2023/07/18 04:42:21;;;;;;;9.93;6.18;;;;;;;22.55;65.81;95826.66;4952768;29;20209;-87
2023/07/18 04:44:47;;;;;;;14.20;12.05;;;;;;;22.64;65.31;95819.94;4953197;29;20205;-86
2023/07/18 04:47:14;;;;;;;23.52;21.30;;;;;;;22.66;66.01;95830.19;4953762;29;20705;-87
2023/07/18 04:49:42;;;;;;;8.20;7.40;;;;;;;22.72;65.38;95823.94;4949676;29;20295;-87
2023/07/18 04:52:11;;;;;;;7.35;6.45;;;;;;;22.79;65.26;95813.28;4943101;29;20209;-87
2023/07/18 04:54:40;;;;;;;7.07;5.78;;;;;;;22.91;64.80;95804.22;4947395;29;20209;-86
2023/07/18 04:57:09;;;;;;;7.90;5.80;;;;;;;22.99;65.03;95789.84;4933785;29;20225;-86
2023/07/18 04:59:35;;;;;;;7.65;5.28;;;;;;;23.07;64.28;95765.78;4933458;29;20241;-86
2023/07/18 05:02:01;;;;;;;9.50;5.63;;;;;;;23.09;64.03;95763.69;4941071;29;20201;-85
2023/07/18 05:04:28;;;;;;;6.75;5.25;;;;;;;23.08;63.97;95756.84;4953113;29;20201;-85
2023/07/18 05:06:58;;;;;;;8.40;5.65;;;;;;;23.21;63.30;95745.91;4952240;29;20678;-84
2023/07/18 05:09:25;;;;;;;6.72;4.97;;;;;;;23.28;62.96;95729.94;4950243;29;20232;-85
2023/07/18 05:11:54;;;;;;;5.43;4.82;;;;;;;23.36;62.65;95727.63;4952095;29;20212;-85
2023/07/18 05:14:20;;;;;;;7.13;5.20;;;;;;;23.46;62.11;95711.13;4952991;29;20212;-84
2023/07/18 05:16:47;;;;;;;6.93;5.97;;;;;;;23.34;63.09;95742.03;4953921;29;20287;-86
2023/07/18 05:19:13;;;;;;;6.28;4.95;;;;;;;23.46;62.00;95715.59;4953945;29;20209;-85
2023/07/18 05:21:39;;;;;;;6.88;5.22;;;;;;;23.49;61.41;95686.16;4952627;29;20746;-85
2023/07/18 05:24:07;;;;;;;5.57;5.05;;;;;;;23.56;59.27;95605.25;4951747;29;20208;-86
2023/07/18 05:26:34;;;;;;;8.50;4.95;;;;;;;23.56;58.62;95557.94;4952692;29;20708;-84
2023/07/18 05:29:01;;;;;;;6.05;4.57;;;;;;;23.66;59.00;95571.94;4952666;29;20205;-84
2023/07/18 05:31:27;;;;;;;4.60;4.15;;;;;;;23.71;56.07;95445.72;4952623;29;20232;-85
2023/07/18 05:33:53;;;;;;;5.75;3.85;;;;;;;23.85;56.08;95455.75;4952882;29;20212;-84
2023/07/18 05:36:20;;;;;;;4.25;3.83;;;;;;;23.98;56.18;95445.47;4952230;29;20215;-84
2023/07/18 05:38:46;;;;;;;7.35;4.47;;;;;;;23.98;54.14;95369.19;4951937;29;20228;-86
2023/07/18 05:41:15;;;;;;;6.00;3.75;;;;;;;23.99;53.82;95346.31;4951045;29;20257;-85
2023/07/18 05:43:41;;;;;;;22.00;19.85;;;;;;;23.96;53.09;95304.75;4955081;29;20216;-85
2023/07/18 05:46:07;;;;;;;7.80;5.60;;;;;;;24.03;52.03;95269.25;4953381;29;20212;-85
2023/07/18 05:48:34;;;;;;;5.43;4.93;;;;;;;24.03;51.43;95234.25;4953086;29;20933;-85
2023/07/18 05:51:01;;;;;;;5.63;5.05;;;;;;;24.11;51.88;95255.50;4953500;29;20235;-85
2023/07/18 05:53:27;;;;;;;5.43;4.13;;;;;;;24.21;51.63;95254.69;4953711;29;20211;-85
2023/07/18 05:55:54;;;;;;;6.38;4.00;;;;;;;24.32;51.24;95222.03;4953482;29;20216;-85
2023/07/18 05:58:23;;;;;;;6.53;3.50;;;;;;;24.44;51.53;95229.59;4951406;29;20646;-85
2023/07/18 06:00:49;;;;;;;3.92;3.63;;;;;;;24.52;50.15;95176.38;4953670;29;20228;-86
2023/07/18 06:03:15;;;;;;;3.10;2.80;;;;;;;24.44;49.25;95119.84;4955475;29;20205;-86
2023/07/18 06:05:42;;;;;;;5.78;3.97;;;;;;;24.52;49.27;95094.78;4953840;29;20236;-86
2023/07/18 06:08:10;;;;;;;4.00;3.50;;;;;;;24.48;48.10;95056.91;4948278;29;20209;-85
2023/07/18 06:10:37;;;;;;;4.65;2.88;;;;;;;24.48;47.32;95000.84;4933182;29;20221;-85
2023/07/18 06:13:06;;;;;;;3.80;3.08;;;;;;;24.56;48.26;95056.31;4943064;29;20617;-85
2023/07/18 06:15:36;;;;;;;4.18;3.10;;;;;;;24.56;47.21;95003.66;4955164;29;20213;-85
2023/07/18 06:18:03;;;;;;;4.00;3.35;;;;;;;24.74;48.08;95049.56;4956299;29;20229;-85
2023/07/18 06:20:32;;;;;;;4.72;3.30;;;;;;;24.59;46.02;94934.69;4956117;29;20220;-85
2023/07/18 06:22:59;;;;;;;6.55;3.55;;;;;;;24.53;44.85;94877.09;4955031;28;20216;-85
2023/07/18 06:25:25;;;;;;;4.60;3.15;;;;;;;24.52;45.23;94881.56;4957759;29;20209;-86
2023/07/18 06:27:52;;;;;;;4.93;3.13;;;;;;;24.49;43.84;94805.03;4956795;29;20205;-86
2023/07/18 06:30:20;;;;;;;3.40;3.08;;;;;;;24.52;45.01;94878.16;4955294;29;20571;-85
2023/07/18 06:32:48;;;;;;;6.15;3.20;;;;;;;24.53;45.33;94874.47;4957393;29;20204;-85
2023/07/18 06:35:14;;;;;;;5.53;3.05;;;;;;;24.47;44.26;94825.56;4956924;29;20213;-86
2023/07/18 06:37:41;;;;;;;5.18;3.45;;;;;;;24.48;44.01;94812.13;4957131;29;20247;-86
2023/07/18 06:40:11;;;;;;;4.80;3.55;;;;;;;24.61;44.74;94816.72;4957905;29;20232;-87
2023/07/18 06:42:37;;;;;;;4.03;3.20;;;;;;;24.70;44.08;94812.38;4956953;29;20597;-86
2023/07/18 06:45:05;;;;;;;4.47;3.22;;;;;;;24.79;44.44;94809.91;4956490;29;20209;-86
2023/07/18 06:47:31;;;;;;;7.18;3.50;;;;;;;24.81;44.13;94807.00;4956509;29;20666;-85
2023/07/18 06:49:59;;;;;;;2.85;2.63;;;;;;;24.65;40.75;94635.28;4955196;29;20220;-86
2023/07/18 06:52:26;;;;;;;3.05;2.60;;;;;;;24.66;42.03;94677.09;4955148;29;20208;-85
2023/07/18 06:54:54;;;;;;;3.90;2.90;;;;;;;24.78;42.70;94750.41;4956928;29;20205;-85
2023/07/18 06:57:20;;;;;;;3.55;3.20;;;;;;;24.72;42.92;94751.53;4928897;29;20241;-85
2023/07/18 06:59:47;;;;;;;3.50;3.10;;;;;;;24.74;42.67;94729.13;4955171;29;20232;-85
2023/07/18 07:02:13;;;;;;;3.20;2.90;;;;;;;24.73;42.56;94732.03;4955140;29;20204;-85
2023/07/18 07:04:40;;;;;;;6.82;3.42;;;;;;;24.79;43.26;94771.19;4956864;29;20204;-86
2023/07/18 07:07:09;;;;;;;4.25;3.13;;;;;;;24.98;43.88;94800.19;4955974;29;20205;-85
2023/07/18 07:09:35;;;;;;;3.25;2.95;;;;;;;25.02;42.56;94740.56;4957257;29;20221;-85
2023/07/18 07:12:02;;;;;;;5.25;2.80;;;;;;;24.92;42.66;94717.00;4956958;29;20268;-85
2023/07/18 07:14:29;;;;;;;3.97;3.22;;;;;;;24.95;42.59;94744.66;4956022;29;20211;-84
2023/07/18 07:16:57;;;;;;;5.15;2.83;;;;;;;24.98;42.30;94700.09;4954135;29;20216;-85
2023/07/18 07:19:24;;;;;;;3.83;2.85;;;;;;;25.01;42.66;94717.97;4955413;29;20315;-85
2023/07/18 07:21:50;;;;;;;3.42;2.58;;;;;;;25.04;41.50;94645.44;4955099;28;20208;-85
2023/07/18 07:24:18;;;;;;;5.50;2.88;;;;;;;25.07;40.98;94619.31;4956843;28;20542;-85
2023/07/18 07:26:44;;;;;;;2.97;2.67;;;;;;;25.07;41.27;94614.06;4955799;29;20207;-85
2023/07/18 07:29:13;;;;;;;4.18;2.80;;;;;;;25.15;42.15;94664.50;4956029;29;20193;-86
2023/07/18 07:31:54;;;;;;;6.03;3.25;;;;;;;25.16;41.96;94651.06;4954466;29;20205;-88
2023/07/18 07:34:20;;;;;;;6.82;2.83;;;;;;;25.16;41.83;94639.72;4951510;29;20207;-88
2023/07/18 07:36:47;;;;;;;4.68;2.97;;;;;;;25.17;41.61;94628.13;4952971;29;20223;-88
2023/07/18 07:39:13;;;;;;;4.43;2.70;;;;;;;25.29;40.98;94625.78;4952850;29;20224;-88
2023/07/18 07:41:45;;;;;;;3.58;2.92;;;;;;;25.44;41.04;94626.28;4952712;29;20852;-88
2023/07/18 07:44:12;;;;;;;5.40;2.67;;;;;;;25.46;40.24;94562.72;4953293;29;20243;-88
2023/07/18 07:46:38;;;;;;;7.90;7.20;;;;;;;25.52;40.14;94558.13;4952648;29;20205;-89
2023/07/18 07:49:09;;;;;;;3.42;3.10;;;;;;;25.51;40.76;94578.44;4951270;29;20209;-88
2023/07/18 07:51:35;;;;;;;5.35;3.03;;;;;;;25.58;41.08;94609.69;4952301;29;20213;-88
2023/07/18 07:54:02;;;;;;;4.20;2.80;;;;;;;25.72;40.21;94586.75;4952313;29;20212;-88
2023/07/18 07:56:28;;;;;;;7.47;3.08;;;;;;;25.86;41.04;94623.63;4951813;29;20575;-89
2023/07/18 07:58:56;;;;;;;4.88;3.28;;;;;;;25.86;41.43;94616.50;4952472;29;20221;-88
2023/07/18 08:01:23;;;;;;;3.88;3.00;;;;;;;26.01;40.90;94610.91;4952349;28;20228;-88
2023/07/18 08:03:49;;;;;;;5.53;3.53;;;;;;;26.01;41.17;94604.84;4951905;29;20209;-88
2023/07/18 08:06:17;;;;;;;4.07;3.42;;;;;;;26.20;40.92;94613.38;4950315;29;20209;-88
2023/07/18 08:08:43;;;;;;;4.35;3.25;;;;;;;26.23;40.29;94580.34;4952143;29;20215;-88
2023/07/18 08:11:20;;;;;;;3.58;2.85;;;;;;;26.38;41.24;94601.91;4951760;29;20224;-88
2023/07/18 08:13:57;;;;;;;4.03;3.50;;;;;;;26.56;40.59;94592.25;4952086;29;20200;-88
2023/07/18 08:20:31;;;;;;;9.75;3.58;;;;;;;26.68;41.39;94626.03;4812154;29;20245;-88
2023/07/18 08:23:13;;;;;;;19.00;17.15;;;;;;;26.87;40.60;94589.66;4815047;29;20227;-89
2023/07/18 08:29:52;;;;;;;;;;;;;;;;;;;;;
2023/07/18 08:32:20;;;;;;;4.88;3.53;;;;;;;26.91;41.15;94595.13;4901197;29;20219;-88
2023/07/18 08:34:48;;;;;;;7.07;4.00;;;;;;;27.03;41.42;94598.00;4932265;29;20821;-88
2023/07/18 08:37:15;;;;;;;3.92;3.50;;;;;;;27.18;40.89;94574.56;4932521;29;20215;-88
2023/07/18 08:39:41;;;;;;;5.70;3.50;;;;;;;27.37;41.00;94611.34;4950309;29;20605;-89
2023/07/18 08:42:13;;;;;;;4.45;3.67;;;;;;;27.44;40.03;94532.38;4951514;29;20646;-89
2023/07/18 08:45:44;;;;;;;4.10;3.67;;;;;;;27.66;40.11;94557.94;4951821;29;20227;-89
2023/07/18 08:48:13;;;;;;;4.38;3.85;;;;;;;27.85;39.56;94524.03;4910936;29;20240;-88
2023/07/18 08:50:40;;;;;;;4.32;3.45;;;;;;;27.94;40.18;94515.31;4951067;29;20855;-87
2023/07/18 08:53:16;;;;;;;5.85;3.78;;;;;;;27.89;39.37;94479.22;4951171;29;20212;-88
2023/07/18 08:55:44;;;;;;;4.40;3.58;;;;;;;27.93;40.10;94511.09;4950714;29;20204;-88
2023/07/18 08:58:11;;;;;;;4.43;3.78;;;;;;;28.06;40.04;94520.78;4951318;29;20208;-88
2023/07/18 09:00:38;;;;;;;5.00;3.78;;;;;;;28.17;40.22;94508.75;4951138;29;20247;-88
2023/07/18 09:03:05;;;;;;;5.18;3.75;;;;;;;28.28;40.46;94535.75;4951109;29;20295;-89
2023/07/18 09:05:41;;;;;;;5.47;4.43;;;;;;;28.39;39.63;94494.59;4951425;29;20204;-88
2023/07/18 09:08:14;;;;;;;6.70;4.00;;;;;;;28.62;38.93;94461.50;4951172;29;20761;-89
2023/07/18 09:10:41;;;;;;;5.63;3.55;;;;;;;28.66;38.90;94459.00;4949723;29;20228;-88
2023/07/18 09:13:09;;;;;;;5.05;3.60;;;;;;;28.79;38.68;94453.47;4950518;29;20215;-89
2023/07/18 09:15:44;;;;;;;8.98;4.63;;;;;;;28.85;38.54;94430.28;4950903;29;20231;-89
2023/07/18 09:18:17;;;;;;;4.93;4.20;;;;;;;28.84;38.92;94426.84;4951014;29;20204;-89
2023/07/18 09:20:45;;;;;;;7.20;3.83;;;;;;;29.03;39.16;94458.22;4950295;29;20235;-89
2023/07/18 09:23:24;;;;;;;5.53;4.07;;;;;;;28.76;38.80;94408.28;4950647;29;20609;-90
2023/07/18 09:33:50;;;;;;;4.43;4.03;;;;;;;29.08;38.42;94409.53;4785499;29;20274;-89
2023/07/18 09:48:14;;;;;;;5.13;3.80;;;;;;;29.88;37.91;94355.22;4958209;28;20251;-88
2023/07/18 09:55:07;;;;;;;;;;;;;;;;;;;;;
2023/07/18 09:58:26;;;;;;;;;;;;;;;;;;;;;
2023/07/18 10:18:35;;;;;;;;;;;;;;;;;;;;;
2023/07/18 10:25:39;;;;;;;4.85;4.20;;;;;;;31.01;36.45;94292.72;4889679;29;20211;-89
2023/07/18 10:32:46;;;;;;;5.30;4.35;;;;;;;30.84;37.01;94304.41;4871410;28;20578;-89
2023/07/18 10:46:17;;;;;;;;;;;;;;;;;;;;;
2023/07/18 11:03:35;;;;;;;;;;;;;;;;;;;;;
2023/07/18 12:10:39;;;;;;;;;;;;;;;;;;;;;
2023/07/18 12:20:00;;;;;;;17.65;16.15;;;;;;;29.86;38.81;94420.34;4816066;29;20244;-89
2023/07/18 12:23:06;;;;;;;11.30;10.23;;;;;;;29.74;39.62;94508.66;4822517;29;20316;-88
2023/07/18 12:32:23;;;;;;;5.07;3.80;;;;;;;29.15;40.25;94588.22;4963741;28;20262;-90
2023/07/18 12:39:06;;;;;;;4.35;3.95;;;;;;;29.05;40.50;94718.47;4945699;28;20203;-89
2023/07/18 12:41:44;;;;;;;6.20;4.30;;;;;;;28.93;41.79;94781.16;4955742;28;20307;-90
2023/07/18 12:44:36;;;;;;;4.60;4.20;;;;;;;28.86;42.22;94843.34;4951166;28;20211;-88
2023/07/18 12:47:21;;;;;;;8.55;4.43;;;;;;;28.71;43.89;94907.34;4951882;29;20205;-90
2023/07/18 12:53:10;;;;;;;7.38;4.18;;;;;;;28.48;46.83;95083.34;4932482;28;20221;-89
2023/07/18 12:56:04;;;;;;;7.70;4.25;;;;;;;28.42;45.84;95058.84;4951897;28;20204;-89
2023/07/18 12:59:13;;;;;;;8.55;4.43;;;;;;;28.24;47.36;95088.16;4967308;28;20212;-88
2023/07/18 13:01:54;;;;;;;6.72;4.10;;;;;;;28.14;47.40;95060.00;4949828;28;20204;-89
2023/07/18 13:04:51;;;;;;;7.90;4.10;;;;;;;27.99;48.37;95068.28;4970178;28;20681;-89
2023/07/18 13:10:10;;;;;;;4.82;4.43;;;;;;;27.77;50.17;95067.16;4969803;28;20216;-88
2023/07/18 13:12:58;;;;;;;7.43;4.40;;;;;;;27.75;50.65;95103.72;4968343;28;20204;-89
2023/07/18 13:16:07;;;;;;;4.95;4.40;;;;;;;27.78;52.08;95105.78;4964828;28;20248;-89
2023/07/18 13:18:39;;;;;;;6.28;4.35;;;;;;;27.73;50.77;95012.50;4970090;28;20749;-88
2023/07/18 13:21:22;;;;;;;6.28;4.03;;;;;;;27.56;51.28;95025.53;4955532;28;20260;-90
2023/07/18 13:24:08;;;;;;;6.25;3.97;;;;;;;27.57;48.08;94869.22;4950629;29;20291;-89
2023/07/18 13:29:57;;;;;;;4.63;4.20;;;;;;;27.63;49.91;94875.97;4960163;28;20227;-89
2023/07/18 13:36:06;;;;;;;;;;;;;;;;;;;;;
2023/07/18 13:41:49;;;;;;;5.57;4.30;;;;;;;27.86;48.14;94688.88;4962758;28;20219;-88
2023/07/18 13:44:16;;;;;;;13.02;11.90;;;;;;;27.98;47.33;94635.34;4957938;28;20204;-87
2023/07/18 13:46:42;;;;;;;18.45;16.77;;;;;;;28.08;47.04;94637.69;4971210;28;20216;-86
2023/07/18 13:49:10;;;;;;;6.95;5.80;;;;;;;28.08;47.15;94662.31;4972959;28;20203;-89
2023/07/18 13:51:36;;;;;;;7.32;4.30;;;;;;;27.98;45.91;94648.56;4960031;28;20196;-85
2023/07/18 13:54:04;;;;;;;6.65;4.22;;;;;;;27.88;46.19;94677.97;4955239;28;20203;-87
2023/07/18 13:56:30;;;;;;;5.57;4.00;;;;;;;27.95;47.02;94736.50;4971034;28;20693;-87
2023/07/18 13:58:59;;;;;;;5.22;4.25;;;;;;;27.98;48.06;94823.22;4971105;28;20315;-87
2023/07/18 14:01:26;;;;;;;5.53;4.20;;;;;;;27.97;48.70;94870.09;4969376;28;20220;-84
2023/07/18 14:03:52;;;;;;;5.57;4.38;;;;;;;27.97;50.09;94941.53;4970999;28;20215;-84
2023/07/18 14:06:22;;;;;;;4.80;4.25;;;;;;;28.02;50.22;94965.25;4959761;28;20645;-86
2023/07/18 14:08:49;;;;;;;5.30;4.80;;;;;;;28.09;50.24;94943.66;4954055;28;20203;-86
2023/07/18 14:11:16;;;;;;;6.38;4.63;;;;;;;28.02;50.11;94914.19;4971294;28;20712;-86
2023/07/18 14:13:42;;;;;;;5.18;4.68;;;;;;;28.02;50.58;94908.88;4970849;28;20211;-85
2023/07/18 14:16:09;;;;;;;5.57;4.65;;;;;;;28.04;50.69;94935.84;4957166;28;20570;-85
2023/07/18 14:18:35;;;;;;;5.82;4.75;;;;;;;28.09;50.44;94901.31;4969878;28;20246;-88
2023/07/18 14:21:02;;;;;;;4.47;4.07;;;;;;;28.02;50.01;94864.69;4970456;28;20748;-86
2023/07/18 14:23:30;;;;;;;7.40;4.43;;;;;;;28.02;49.91;94824.97;4958782;28;20197;-84
2023/07/18 14:25:56;;;;;;;5.55;4.00;;;;;;;27.93;49.03;94765.16;4954139;28;20205;-88
2023/07/18 14:28:23;;;;;;;6.13;4.63;;;;;;;27.94;49.38;94756.91;4953802;28;20263;-88
2023/07/18 14:30:50;;;;;;;4.50;4.10;;;;;;;28.00;49.44;94757.56;4956617;28;20275;-87
2023/07/18 14:33:16;;;;;;;5.32;4.20;;;;;;;28.05;48.53;94715.06;4968353;28;20203;-85
2023/07/18 14:35:44;;;;;;;4.97;4.20;;;;;;;28.28;48.03;94653.00;4975272;28;20222;-87
2023/07/18 14:38:11;;;;;;;5.13;4.30;;;;;;;28.63;46.77;94598.16;4970314;28;20193;-86
2023/07/18 14:40:39;;;;;;;4.07;3.67;;;;;;;28.79;45.56;94519.72;4973152;28;20231;-86
2023/07/18 14:43:10;;;;;;;6.97;4.20;;;;;;;29.01;45.63;94545.25;4966854;28;20281;-86
2023/07/18 14:45:41;;;;;;;7.13;3.90;;;;;;;29.00;45.30;94548.22;4962156;28;20197;-88
2023/07/18 14:48:26;;;;;;;;;;;;;;;;;;;;;
2023/07/18 14:51:21;;;;;;;5.88;3.88;;;;;;;28.81;45.50;94583.03;4959725;28;20217;-89
2023/07/18 14:57:51;;;;;;;4.72;4.32;;;;;;;28.36;46.86;94638.97;4892898;29;20206;-87
2023/07/18 15:04:45;;;;;;;;;;;;;;;;;;;;;
2023/07/18 15:10:50;;;;;;;6.03;4.82;;;;;;;28.32;47.54;94692.88;4904427;29;20734;-87